createdAt,value
2022-12-27T00:00:05.119Z,69.66
2022-12-27T00:02:31.468Z,69.81
2022-12-27T00:04:57.964Z,69.66
2022-12-27T00:07:24.279Z,69.89
2022-12-27T00:09:50.862Z,69.56
2022-12-27T00:12:17.181Z,69.59
2022-12-27T00:14:43.491Z,69.54
2022-12-27T00:17:09.833Z,69.93
2022-12-27T00:19:36.157Z,69.75
2022-12-27T00:22:02.626Z,69.77
2022-12-27T00:24:28.989Z,69.74
2022-12-27T00:26:55.314Z,69.87
2022-12-27T00:29:21.619Z,69.93
2022-12-27T00:31:48.232Z,69.83
2022-12-27T00:34:14.563Z,69.86
2022-12-27T00:36:40.904Z,70.08
2022-12-27T00:39:07.223Z,70.02
2022-12-27T00:41:33.632Z,70.07
2022-12-27T00:43:59.942Z,69.88
2022-12-27T00:46:26.279Z,70.13
2022-12-27T00:48:52.917Z,69.85
2022-12-27T00:51:22.119Z,69.79
2022-12-27T00:53:49.577Z,69.89
2022-12-27T00:56:22.014Z,68.70
2022-12-27T00:58:53.127Z,69.07
2022-12-27T01:01:21.415Z,69.91
2022-12-27T01:03:47.977Z,69.98
2022-12-27T01:06:20.099Z,69.85
2022-12-27T01:08:47.493Z,69.90
2022-12-27T01:11:15.114Z,69.97
2022-12-27T01:13:42.632Z,70.17
2022-12-27T01:16:18.020Z,69.27
2022-12-27T01:18:44.571Z,70.35
2022-12-27T01:21:13.313Z,70.34
2022-12-27T01:23:40.044Z,70.77
2022-12-27T01:26:10.414Z,70.44
2022-12-27T01:28:37.338Z,70.67
2022-12-27T01:31:14.993Z,69.99
2022-12-27T01:33:41.557Z,71.17
2022-12-27T01:36:10.185Z,70.71
2022-12-27T01:38:36.494Z,70.99
2022-12-27T01:41:22.782Z,70.70
2022-12-27T01:43:49.254Z,70.45
2022-12-27T01:46:16.044Z,70.55
2022-12-27T01:48:42.554Z,70.34
2022-12-27T01:51:10.920Z,70.30
2022-12-27T01:53:42.164Z,69.97
2022-12-27T02:01:45.590Z,69.69
2022-12-27T02:04:18.812Z,69.93
2022-12-27T02:06:46.753Z,70.07
2022-12-27T02:09:28.031Z,69.47
2022-12-27T02:11:56.975Z,70.06
2022-12-27T02:14:31.193Z,69.46
2022-12-27T02:17:00.361Z,70.02
2022-12-27T02:19:32.891Z,70.28
2022-12-27T02:22:21.328Z,69.62
2022-12-27T02:25:11.377Z,69.56
2022-12-27T02:27:56.128Z,69.37
2022-12-27T02:30:22.800Z,70.28
2022-12-27T02:32:53.107Z,70.08
2022-12-27T02:35:22.538Z,70.54
2022-12-27T02:37:58.458Z,70.06
2022-12-27T02:40:45.592Z,70.35
2022-12-27T02:43:30.869Z,70.91
2022-12-27T02:46:33.249Z,69.92
2022-12-27T02:49:18.627Z,70.67
2022-12-27T02:52:27.834Z,70.57
2022-12-27T02:55:15.392Z,70.33
2022-12-27T02:58:20.903Z,70.43
2022-12-27T03:01:22.885Z,70.61
2022-12-27T03:03:56.540Z,71.34
2022-12-27T03:06:41.166Z,71.36
2022-12-27T03:09:52.644Z,70.36
2022-12-27T03:12:49.732Z,71.68
2022-12-27T03:15:56.167Z,70.76
2022-12-27T03:18:44.343Z,71.19
2022-12-27T03:21:32.887Z,71.77
2022-12-27T03:24:35.726Z,71.73
2022-12-27T03:27:07.825Z,71.52
2022-12-27T03:29:52.894Z,71.20
2022-12-27T03:32:40.185Z,71.08
2022-12-27T03:35:18.500Z,70.61
2022-12-27T03:38:05.125Z,70.84
2022-12-27T03:41:15.222Z,70.18
2022-12-27T03:43:42.067Z,71.49
2022-12-27T03:46:33.971Z,70.82
2022-12-27T03:49:15.876Z,70.29
2022-12-27T03:51:55.075Z,70.29
2022-12-27T03:54:34.734Z,70.48
2022-12-27T03:57:05.291Z,71.12
2022-12-27T03:59:31.887Z,71.15
2022-12-27T04:02:00.553Z,71.15
2022-12-27T04:04:27.301Z,71.53
2022-12-27T04:06:53.993Z,71.48
2022-12-27T04:09:39.553Z,71.32
2022-12-27T04:12:24.897Z,71.09
2022-12-27T04:15:09.691Z,71.09
2022-12-27T04:17:54.636Z,70.97
2022-12-27T04:20:39.699Z,70.90
2022-12-27T04:23:25.238Z,71.05
2022-12-27T04:26:10.635Z,70.94
2022-12-27T04:28:55.777Z,70.94
2022-12-27T04:31:40.750Z,71.27
2022-12-27T04:34:25.875Z,71.18
2022-12-27T04:36:52.391Z,71.33
2022-12-27T04:39:18.937Z,71.60
2022-12-27T04:42:04.345Z,71.88
2022-12-27T04:44:49.391Z,72.01
2022-12-27T04:47:38.128Z,72.12
2022-12-27T04:50:28.892Z,71.83
2022-12-27T04:53:13.703Z,72.00
2022-12-27T04:55:40.182Z,71.69
2022-12-27T04:58:06.794Z,71.63
2022-12-27T05:00:52.338Z,71.45
2022-12-27T05:03:22.967Z,70.98
2022-12-27T05:05:51.754Z,71.24
2022-12-27T05:08:38.462Z,71.48
2022-12-27T05:11:24.644Z,71.49
2022-12-27T05:14:00.440Z,71.92
2022-12-27T05:16:41.565Z,70.96
2022-12-27T05:19:10.374Z,71.89
2022-12-27T05:21:38.597Z,71.51
2022-12-27T05:24:24.522Z,71.86
2022-12-27T05:26:51.040Z,71.98
2022-12-27T05:29:17.606Z,71.86
2022-12-27T05:31:44.148Z,72.04
2022-12-27T05:34:10.735Z,72.15
2022-12-27T05:36:37.327Z,71.72
2022-12-27T05:39:03.976Z,71.74
2022-12-27T05:41:30.567Z,71.77
2022-12-27T05:44:02.134Z,71.83
2022-12-27T05:46:33.399Z,71.99
2022-12-27T05:48:59.964Z,71.76
2022-12-27T05:51:26.487Z,71.66
2022-12-27T05:53:53.039Z,71.74
2022-12-27T05:56:21.525Z,71.83
2022-12-27T05:58:48.349Z,71.85
2022-12-27T06:01:17.320Z,71.39
2022-12-27T06:03:44.715Z,71.72
2022-12-27T06:06:11.948Z,71.53
2022-12-27T06:08:39.041Z,71.43
2022-12-27T06:11:17.443Z,70.97
2022-12-27T06:13:49.168Z,71.67
2022-12-27T06:16:15.820Z,71.95
2022-12-27T06:18:42.838Z,71.71
2022-12-27T06:21:12.970Z,71.90
2022-12-27T06:23:41.412Z,71.73
2022-12-27T06:26:09.533Z,71.57
2022-12-27T06:28:36.222Z,71.68
2022-12-27T06:31:03.599Z,71.87
2022-12-27T06:33:30.987Z,72.11
2022-12-27T06:35:57.799Z,72.15
2022-12-27T06:38:24.555Z,72.06
2022-12-27T06:40:51.109Z,72.24
2022-12-27T06:43:17.609Z,72.25
2022-12-27T06:45:44.203Z,72.26
2022-12-27T06:48:10.799Z,72.08
2022-12-27T06:50:37.314Z,72.19
2022-12-27T06:53:03.798Z,72.02
2022-12-27T06:55:30.261Z,71.93
2022-12-27T06:57:56.906Z,72.12
2022-12-27T07:00:23.478Z,72.51
2022-12-27T07:02:50.066Z,72.03
2022-12-27T07:05:16.877Z,72.05
2022-12-27T07:07:43.411Z,72.18
2022-12-27T07:10:10.107Z,72.01
2022-12-27T07:12:37.417Z,72.18
2022-12-27T07:15:07.963Z,71.81
2022-12-27T07:17:36.162Z,72.22
2022-12-27T07:20:06.751Z,71.72
2022-12-27T07:22:34.366Z,72.09
2022-12-27T07:25:00.958Z,71.85
2022-12-27T07:27:27.461Z,71.67
2022-12-27T07:29:53.969Z,71.71
2022-12-27T07:32:20.579Z,71.95
2022-12-27T07:34:47.110Z,71.63
2022-12-27T07:37:13.683Z,71.64
2022-12-27T07:39:40.174Z,71.53
2022-12-27T07:42:08.651Z,71.60
2022-12-27T07:44:35.578Z,71.54
2022-12-27T07:47:02.179Z,71.85
2022-12-27T07:49:28.730Z,71.89
2022-12-27T07:51:55.436Z,71.49
2022-12-27T07:54:25.089Z,71.52
2022-12-27T07:59:22.844Z,71.13
2022-12-27T08:02:04.590Z,71.50
2022-12-27T08:04:32.407Z,71.45
2022-12-27T08:07:14.662Z,71.30
2022-12-27T08:09:43.463Z,71.64
2022-12-27T08:12:11.273Z,71.60
2022-12-27T08:14:37.681Z,71.86
2022-12-27T08:17:29.459Z,71.72
2022-12-27T08:19:56.009Z,71.95
2022-12-27T08:22:23.648Z,72.04
2022-12-27T08:24:50.116Z,72.16
2022-12-27T08:27:24.419Z,71.95
2022-12-27T08:29:50.754Z,71.93
2022-12-27T08:32:17.092Z,72.24
2022-12-27T08:34:43.474Z,72.55
2022-12-27T08:37:09.829Z,72.48
2022-12-27T08:39:36.122Z,72.43
2022-12-27T08:42:02.560Z,72.48
2022-12-27T08:44:29.267Z,72.67
2022-12-27T08:46:55.641Z,72.71
2022-12-27T08:49:22.416Z,72.87
2022-12-27T08:51:50.106Z,72.84
2022-12-27T08:54:16.445Z,72.81
2022-12-27T08:56:42.781Z,72.84
2022-12-27T08:59:09.121Z,73.08
2022-12-27T09:01:35.553Z,73.03
2022-12-27T09:04:05.283Z,72.89
2022-12-27T09:06:31.816Z,72.77
2022-12-27T09:08:59.607Z,72.67
2022-12-27T09:11:32.773Z,72.25
2022-12-27T09:14:03.880Z,71.82
2022-12-27T09:16:31.327Z,72.26
2022-12-27T09:18:59.018Z,72.58
2022-12-27T09:21:30.167Z,71.99
2022-12-27T09:23:56.628Z,72.43
2022-12-27T09:26:26.469Z,72.18
2022-12-27T09:28:53.711Z,72.45
2022-12-27T09:31:21.121Z,72.35
2022-12-27T09:33:47.951Z,72.54
2022-12-27T09:36:16.662Z,72.59
2022-12-27T09:38:43.734Z,72.33
2022-12-27T09:42:11.773Z,71.84
2022-12-27T09:44:15.355Z,71.62
2022-12-27T09:46:53.957Z,71.90
2022-12-27T09:49:31.103Z,72.08
2022-12-27T09:52:10.523Z,71.63
2022-12-27T09:55:05.717Z,72.02
2022-12-27T09:57:41.702Z,71.80
2022-12-27T10:00:17.232Z,71.74
2022-12-27T10:02:44.845Z,72.33
2022-12-27T10:05:21.984Z,72.19
2022-12-27T10:07:55.083Z,72.11
2022-12-27T10:10:27.139Z,72.01
2022-12-27T10:13:04.098Z,72.00
2022-12-27T10:15:30.489Z,72.47
2022-12-27T10:17:59.808Z,72.63
2022-12-27T10:20:47.434Z,71.45
2022-12-27T10:23:22.246Z,71.80
2022-12-27T10:25:55.081Z,72.36
2022-12-27T10:28:29.002Z,72.70
2022-12-27T10:30:55.557Z,72.48
2022-12-27T10:33:30.117Z,71.09
2022-12-27T10:35:57.646Z,72.45
2022-12-27T10:38:25.193Z,72.06
2022-12-27T10:41:00.444Z,72.27
2022-12-27T10:43:35.374Z,71.00
2022-12-27T10:46:33.722Z,70.79
2022-12-27T10:49:23.941Z,70.49
2022-12-27T10:51:52.912Z,71.91
2022-12-27T10:54:28.481Z,70.78
2022-12-27T10:56:56.115Z,71.93
2022-12-27T10:59:28.139Z,70.48
2022-12-27T11:02:00.607Z,70.43
2022-12-27T11:04:28.294Z,71.24
2022-12-27T11:06:59.531Z,70.59
2022-12-27T11:09:26.588Z,71.43
2022-12-27T11:12:15.267Z,69.17
2022-12-27T11:15:01.003Z,69.77
2022-12-27T11:17:38.004Z,69.73
2022-12-27T11:20:20.491Z,70.48
2022-12-27T11:22:48.796Z,71.67
2022-12-27T11:25:16.181Z,71.99
2022-12-27T11:27:52.598Z,71.07
2022-12-27T11:30:26.775Z,71.61
2022-12-27T11:32:53.663Z,72.17
2022-12-27T11:35:22.609Z,70.75
2022-12-27T11:37:50.599Z,69.98
2022-12-27T11:40:34.413Z,67.92
2022-12-27T11:43:08.102Z,69.18
2022-12-27T11:45:40.328Z,69.49
2022-12-27T11:48:30.886Z,67.79
2022-12-27T11:51:23.869Z,68.63
2022-12-27T11:54:02.021Z,69.14
2022-12-27T11:56:52.705Z,68.78
2022-12-27T11:59:38.844Z,69.18
2022-12-27T12:02:32.152Z,68.52
2022-12-27T12:05:23.028Z,68.32
2022-12-27T12:08:23.323Z,67.87
2022-12-27T12:11:06.978Z,68.73
2022-12-27T12:13:57.969Z,68.62
2022-12-27T12:16:51.878Z,68.66
2022-12-27T12:19:34.162Z,68.59
2022-12-27T12:22:29.912Z,68.16
2022-12-27T12:25:24.712Z,68.60
2022-12-27T12:28:02.174Z,68.99
2022-12-27T12:30:56.150Z,68.15
2022-12-27T12:33:48.886Z,68.82
2022-12-27T12:36:37.015Z,69.19
2022-12-27T12:39:36.685Z,68.89
2022-12-27T12:42:29.327Z,70.14
2022-12-27T12:45:17.647Z,69.53
2022-12-27T12:47:58.965Z,69.02
2022-12-27T12:50:53.207Z,69.04
2022-12-27T12:53:28.944Z,69.49
2022-12-27T12:56:13.953Z,68.95
2022-12-27T12:58:43.420Z,69.90
2022-12-27T13:01:31.490Z,68.59
2022-12-27T13:04:10.730Z,69.06
2022-12-27T13:06:55.022Z,68.99
2022-12-27T13:09:42.721Z,70.18
2022-12-27T13:12:18.351Z,68.96
2022-12-27T13:14:47.425Z,68.98
2022-12-27T13:17:25.380Z,68.52
2022-12-27T13:20:18.076Z,68.44
2022-12-27T13:23:10.403Z,69.09
2022-12-27T13:25:45.739Z,68.93
2022-12-27T13:28:36.666Z,68.21
2022-12-27T13:31:09.285Z,69.25
2022-12-27T13:33:59.181Z,68.34
2022-12-27T13:36:54.402Z,69.04
2022-12-27T13:39:35.473Z,70.19
2022-12-27T13:42:24.259Z,69.54
2022-12-27T13:45:20.555Z,69.12
2022-12-27T13:48:08.944Z,69.05
2022-12-27T13:50:53.844Z,70.31
2022-12-27T13:53:39.015Z,68.99
2022-12-27T13:56:53.511Z,69.02
2022-12-27T14:02:38.267Z,69.56
2022-12-27T14:05:46.211Z,69.28
2022-12-27T14:08:27.684Z,70.60
2022-12-27T14:11:00.838Z,70.63
2022-12-27T14:13:38.603Z,69.77
2022-12-27T14:16:26.757Z,70.12
2022-12-27T14:19:43.157Z,68.84
2022-12-27T14:22:25.428Z,68.66
2022-12-27T14:25:10.405Z,70.38
2022-12-27T14:28:14.214Z,68.69
2022-12-27T14:31:03.291Z,68.29
2022-12-27T14:33:48.717Z,69.45
2022-12-27T14:36:43.266Z,68.62
2022-12-27T14:39:28.657Z,68.40
2022-12-27T14:42:30.667Z,68.19
2022-12-27T14:45:15.947Z,69.28
2022-12-27T14:48:40.346Z,68.72
2022-12-27T14:52:00.351Z,68.48
2022-12-27T14:54:33.867Z,68.95
2022-12-27T14:57:15.833Z,69.11
2022-12-27T15:00:12.036Z,68.18
2022-12-27T15:02:56.617Z,67.98
2022-12-27T15:05:46.641Z,69.09
2022-12-27T15:08:31.681Z,67.67
2022-12-27T15:11:25.673Z,67.99
2022-12-27T15:13:52.214Z,68.68
2022-12-27T15:16:30.697Z,67.97
2022-12-27T15:19:41.603Z,67.97
2022-12-27T15:22:52.400Z,67.89
2022-12-27T15:25:18.819Z,69.10
2022-12-27T15:28:00.560Z,68.46
2022-12-27T15:30:55.145Z,68.42
2022-12-27T15:33:26.180Z,69.76
2022-12-27T15:35:58.438Z,69.66
2022-12-27T15:38:41.203Z,68.46
2022-12-27T15:41:07.782Z,69.39
2022-12-27T15:43:57.159Z,68.25
2022-12-27T15:46:38.892Z,69.06
2022-12-27T15:49:05.362Z,69.60
2022-12-27T15:51:45.194Z,68.62
2022-12-27T15:54:39.380Z,68.46
2022-12-27T15:57:33.504Z,68.89
2022-12-27T16:00:33.844Z,68.66
2022-12-27T16:03:03.242Z,69.47
2022-12-27T16:05:49.363Z,69.54
2022-12-27T16:08:27.598Z,69.16
2022-12-27T16:10:55.754Z,69.75
2022-12-27T16:13:43.294Z,69.24
2022-12-27T16:16:33.439Z,69.39
2022-12-27T16:19:12.237Z,69.75
2022-12-27T16:21:45.082Z,69.65
2022-12-27T16:24:17.399Z,69.72
2022-12-27T16:26:51.696Z,69.34
2022-12-27T16:29:18.546Z,70.06
2022-12-27T16:31:50.323Z,69.42
2022-12-27T16:34:30.201Z,69.83
2022-12-27T16:37:00.916Z,69.89
2022-12-27T16:39:33.418Z,69.99
2022-12-27T16:42:06.064Z,69.89
2022-12-27T16:44:44.710Z,70.39
2022-12-27T16:47:34.968Z,69.31
2022-12-27T16:50:26.869Z,69.70
2022-12-27T16:53:14.533Z,69.82
2022-12-27T16:56:05.827Z,69.75
2022-12-27T16:58:39.297Z,69.56
2022-12-27T17:01:27.033Z,70.24
2022-12-27T17:03:55.105Z,70.16
2022-12-27T17:06:37.000Z,70.69
2022-12-27T17:09:09.422Z,70.01
2022-12-27T17:11:41.717Z,70.16
2022-12-27T17:14:27.921Z,69.88
2022-12-27T17:17:03.109Z,70.05
2022-12-27T17:19:36.233Z,69.87
2022-12-27T17:22:08.057Z,70.24
2022-12-27T17:24:34.625Z,70.50
2022-12-27T17:27:16.429Z,70.30
2022-12-27T17:30:17.672Z,70.33
2022-12-27T17:32:59.983Z,70.35
2022-12-27T17:35:59.730Z,70.10
2022-12-27T17:38:35.234Z,71.04
2022-12-27T17:41:05.575Z,70.87
2022-12-27T17:44:18.243Z,70.41
2022-12-27T17:47:21.515Z,70.26
2022-12-27T17:49:48.968Z,71.19
2022-12-27T17:52:36.526Z,70.82
2022-12-27T17:55:37.621Z,70.67
2022-12-27T17:58:08.036Z,71.17
2022-12-27T18:00:43.580Z,71.18
2022-12-27T18:03:13.123Z,71.22
2022-12-27T18:05:43.098Z,70.90
2022-12-27T18:08:26.033Z,70.46
2022-12-27T18:10:52.756Z,71.21
2022-12-27T18:13:22.695Z,70.89
2022-12-27T18:15:50.897Z,70.97
2022-12-27T18:18:38.344Z,70.37
2022-12-27T18:21:07.013Z,71.11
2022-12-27T18:23:42.314Z,70.59
2022-12-27T18:26:14.101Z,70.78
2022-12-27T18:28:42.340Z,71.38
2022-12-27T18:31:27.097Z,71.14
2022-12-27T18:34:00.068Z,70.82
2022-12-27T18:36:31.978Z,69.64
2022-12-27T18:39:13.277Z,70.24
2022-12-27T18:41:51.435Z,70.00
2022-12-27T18:44:27.113Z,70.40
2022-12-27T18:46:56.654Z,70.79
2022-12-27T18:49:30.647Z,70.57
2022-12-27T18:51:58.014Z,70.83
2022-12-27T18:54:27.716Z,70.56
2022-12-27T18:56:55.253Z,70.91
2022-12-27T18:59:28.760Z,70.13
2022-12-27T19:01:58.701Z,70.41
2022-12-27T19:04:33.663Z,69.53
2022-12-27T19:07:12.917Z,69.58
2022-12-27T19:09:48.377Z,68.19
2022-12-27T19:12:35.199Z,69.18
2022-12-27T19:15:02.749Z,70.04
2022-12-27T19:17:31.708Z,69.79
2022-12-27T19:20:02.001Z,69.38
2022-12-27T19:22:36.755Z,69.62
2022-12-27T19:25:18.667Z,69.08
2022-12-27T19:28:09.835Z,68.17
2022-12-27T19:30:43.929Z,68.33
2022-12-27T19:33:22.565Z,68.57
2022-12-27T19:35:49.077Z,69.36
2022-12-27T19:38:21.561Z,68.56
2022-12-27T19:40:50.173Z,68.92
2022-12-27T19:43:18.215Z,68.74
2022-12-27T19:45:44.999Z,68.54
2022-12-27T19:48:11.650Z,68.74
2022-12-27T19:50:46.641Z,67.07
2022-12-27T19:53:22.763Z,66.53
2022-12-27T19:55:49.248Z,68.42
2022-12-27T19:58:21.184Z,65.90
2022-12-27T20:00:47.898Z,67.86
2022-12-27T20:03:14.473Z,67.89
2022-12-27T20:06:13.329Z,67.90
2022-12-27T20:08:38.065Z,66.52
2022-12-27T20:11:07.425Z,67.22
2022-12-27T20:13:33.953Z,67.46
2022-12-27T20:16:00.609Z,67.14
2022-12-27T20:18:27.082Z,67.16
2022-12-27T20:20:53.677Z,67.31
2022-12-27T20:23:20.441Z,67.10
2022-12-27T20:25:48.733Z,66.88
2022-12-27T20:28:16.849Z,66.22
2022-12-27T20:30:44.529Z,67.08
2022-12-27T20:33:11.265Z,66.31
2022-12-27T20:35:37.611Z,66.64
2022-12-27T20:38:04.370Z,66.40
2022-12-27T20:40:31.270Z,66.75
2022-12-27T20:42:57.917Z,66.66
2022-12-27T20:45:24.624Z,66.87
2022-12-27T20:47:51.008Z,66.79
2022-12-27T20:50:17.691Z,66.47
2022-12-27T20:52:44.115Z,66.52
2022-12-27T20:55:12.314Z,66.23
2022-12-27T20:57:39.258Z,66.65
2022-12-27T21:00:07.822Z,66.33
2022-12-27T21:02:34.601Z,66.19
2022-12-27T21:05:01.299Z,66.49
2022-12-27T21:07:27.700Z,66.15
2022-12-27T21:09:54.134Z,66.24
2022-12-27T21:12:20.584Z,66.51
2022-12-27T21:14:47.332Z,66.29
2022-12-27T21:17:13.647Z,66.47
2022-12-27T21:19:39.949Z,66.74
2022-12-27T21:22:06.559Z,66.36
2022-12-27T21:24:33.255Z,65.87
2022-12-27T21:26:59.619Z,66.61
2022-12-27T21:29:25.946Z,66.43
2022-12-27T21:31:53.215Z,66.37
2022-12-27T21:34:20.503Z,66.41
2022-12-27T21:36:51.081Z,65.83
2022-12-27T21:39:17.560Z,66.46
2022-12-27T21:41:43.923Z,66.20
2022-12-27T21:44:10.345Z,66.05
2022-12-27T21:46:39.598Z,66.18
2022-12-27T21:49:12.301Z,65.75
2022-12-27T21:51:39.920Z,66.22
2022-12-27T21:54:06.984Z,66.63
2022-12-27T21:56:33.827Z,66.26
2022-12-27T21:59:01.709Z,66.19
2022-12-27T22:01:30.680Z,66.07
2022-12-27T22:04:16.915Z,66.49
2022-12-27T22:06:46.828Z,66.13
2022-12-27T22:09:14.055Z,65.87
2022-12-27T22:11:40.446Z,66.03
2022-12-27T22:14:06.931Z,66.18
2022-12-27T22:16:38.801Z,65.85
2022-12-27T22:19:07.482Z,66.16
2022-12-27T22:21:35.672Z,65.78
2022-12-27T22:24:02.953Z,66.22
2022-12-27T22:26:37.080Z,65.70
2022-12-27T22:29:04.834Z,65.69
2022-12-27T22:31:35.107Z,65.67
2022-12-27T22:34:03.347Z,65.74
2022-12-27T22:36:30.120Z,66.13
2022-12-27T22:38:58.180Z,66.13
2022-12-27T22:41:33.475Z,64.22
2022-12-27T22:44:05.162Z,65.57
2022-12-27T22:46:58.727Z,65.90
2022-12-27T22:49:18.406Z,65.46
2022-12-27T22:51:45.249Z,65.46
2022-12-27T22:54:11.556Z,65.61
2022-12-27T22:56:40.144Z,65.45
2022-12-27T22:59:07.905Z,65.88
2022-12-27T23:01:34.754Z,66.01
2022-12-27T23:04:03.990Z,65.43
2022-12-27T23:06:32.410Z,65.84
2022-12-27T23:08:58.884Z,65.53
2022-12-27T23:11:30.630Z,65.65
2022-12-27T23:14:02.452Z,65.73
2022-12-27T23:16:34.576Z,65.71
2022-12-27T23:19:00.940Z,65.57
2022-12-27T23:21:27.253Z,65.60
2022-12-27T23:23:53.598Z,65.98
2022-12-27T23:26:22.622Z,65.26
2022-12-27T23:28:50.488Z,65.58
2022-12-27T23:31:17.996Z,65.53
2022-12-27T23:33:45.018Z,65.72
2022-12-27T23:36:12.743Z,65.75
2022-12-27T23:38:41.711Z,65.59
2022-12-27T23:41:10.813Z,65.60
2022-12-27T23:43:52.295Z,65.85
2022-12-27T23:46:21.349Z,65.61
2022-12-27T23:48:47.799Z,65.81
2022-12-27T23:51:14.678Z,65.68
2022-12-27T23:53:41.247Z,65.68
2022-12-27T23:56:34.100Z,63.53
2022-12-27T23:59:02.213Z,65.72
